Gulledge, Arkansas
Current Conditions -  °F | °C
As of 8:15 AM on Sunday 25 Jan 2015 (Local Time) from KBQP Reporting Station
Clear Clear  
Wind Chill: 37°   Ceiling: Unl
Heat Index: 42°   Visibility: 10mi
Dew Point: 36°   Wind: 8mph
Humidity: 79%   Direction: 210°SSW
Pressure: 29.89"   Gusts: NA
Location:  33.1762°N, 91.7595°W
Report Text: KBQP 251415Z AUTO 21007KT 10SM CLR 06/02 A2989 RMK AO2 T00550022
Loading
Personal Weather Stations






























Interactive Weather Map New forecast layout! Learn more

10-Day Weather Forecast

Advertisements
Track Severe Weather on mobile